Time;durP1;ratioP1;P1;durP2;ratioP2;P2;SDS_P1;SDS_P2;PMS_P1;PMS_P2;Temp;Humidity;BMP_temperature;BMP_pressure;BME280_temperature;BME280_humidity;BME280_pressure;Samples;Min_cycle;Max_cycle;Signal;HPM_P1;HPM_P2
2022/05/14 00:02:40;;;;;;;6.90;2.45;;;;;;;17.65;82.16;100425.66;5590012;31;34158;-68
2022/05/14 00:05:43;;;;;;;2.33;2.03;;;;;;;17.61;82.23;100427.13;5590707;31;33953;-68
2022/05/14 00:08:47;;;;;;;2.65;2.20;;;;;;;17.57;82.36;100433.09;5589947;31;33456;-67
2022/05/14 00:15:11;;;;;;;6.50;2.37;;;;;;;17.49;82.56;100434.13;5590624;31;34658;-67
2022/05/14 00:18:15;;;;;;;3.33;2.30;;;;;;;17.50;82.26;100435.78;5590524;31;34040;-68
2022/05/14 00:21:19;;;;;;;5.60;2.62;;;;;;;17.48;82.42;100439.69;5590465;31;34644;-69
2022/05/14 00:24:23;;;;;;;3.00;2.28;;;;;;;17.41;82.47;100439.72;5589784;31;33287;-67
2022/05/14 00:27:27;;;;;;;2.60;2.05;;;;;;;17.37;83.07;100438.50;5589733;31;32320;-68
2022/05/14 00:30:31;;;;;;;4.53;2.37;;;;;;;17.41;82.81;100433.53;5576428;31;32725;-67
2022/05/14 00:33:33;;;;;;;2.78;2.17;;;;;;;17.37;82.93;100442.00;5590356;31;34836;-68
2022/05/14 00:36:36;;;;;;;6.20;2.08;;;;;;;17.41;82.43;100447.78;5590287;31;35238;-68
2022/05/14 00:39:39;;;;;;;4.12;2.35;;;;;;;17.28;83.45;100462.03;5576450;31;33163;-68
2022/05/14 00:42:42;;;;;;;2.83;2.03;;;;;;;17.21;84.09;100455.03;5589477;31;34532;-67
2022/05/14 00:45:53;;;;;;;4.55;2.20;;;;;;;17.20;84.35;100450.69;5590270;31;34008;-68
2022/05/14 00:48:58;;;;;;;3.95;2.75;;;;;;;17.12;84.78;100448.25;5590230;31;33872;-68
2022/05/14 00:52:15;;;;;;;3.25;2.60;;;;;;;17.07;85.21;100453.41;5589484;31;34639;-68
2022/05/14 00:55:18;;;;;;;5.72;2.50;;;;;;;17.04;85.80;100446.59;5589427;31;34822;-68
2022/05/14 00:58:33;;;;;;;3.72;2.40;;;;;;;17.03;85.91;100441.47;5590076;31;33899;-66
2022/05/14 01:01:37;;;;;;;2.83;2.47;;;;;;;16.99;86.15;100443.75;5589640;31;33850;-68
2022/05/14 01:04:42;;;;;;;5.12;2.55;;;;;;;16.97;86.63;100461.88;5576502;31;33891;-67
2022/05/14 01:07:51;;;;;;;3.40;2.70;;;;;;;16.94;86.86;100449.69;5589750;31;33930;-68
2022/05/14 01:10:54;;;;;;;5.93;2.80;;;;;;;16.87;87.50;100456.94;5590102;31;33920;-66
2022/05/14 01:13:57;;;;;;;3.25;2.42;;;;;;;16.87;87.81;100453.41;5590132;31;34700;-68
2022/05/14 01:17:03;;;;;;;3.62;2.78;;;;;;;16.82;88.16;100450.53;5589393;31;32347;-68
2022/05/14 01:20:08;;;;;;;4.45;2.95;;;;;;;16.70;88.94;100454.88;5590243;31;34018;-68
2022/05/14 01:23:30;;;;;;;5.22;2.80;;;;;;;16.68;89.32;100457.75;5589910;31;33953;-68
2022/05/14 01:26:36;;;;;;;3.72;2.72;;;;;;;16.61;90.12;100458.75;5589941;31;34524;-69
2022/05/14 01:29:42;;;;;;;3.45;2.87;;;;;;;16.58;90.32;100467.19;5589147;31;32405;-66
2022/05/14 01:32:46;;;;;;;3.33;2.65;;;;;;;16.48;91.04;100464.91;5588357;31;32678;-67
2022/05/14 01:35:50;;;;;;;5.15;2.50;;;;;;;16.48;91.28;100468.41;5588846;31;33464;-68
2022/05/14 01:38:55;;;;;;;4.28;2.70;;;;;;;16.43;91.55;100465.53;5576125;31;33731;-68
2022/05/14 01:41:58;;;;;;;4.57;2.90;;;;;;;16.42;91.83;100463.84;5589066;31;34629;-68
2022/05/14 01:45:00;;;;;;;4.05;2.92;;;;;;;16.32;92.79;100471.47;5576159;31;33540;-68
2022/05/14 01:48:04;;;;;;;4.05;2.83;;;;;;;16.28;93.36;100474.75;5589797;31;34005;-68
2022/05/14 01:51:07;;;;;;;3.95;2.95;;;;;;;16.16;94.22;100476.38;5589203;31;32452;-67
2022/05/14 01:54:11;;;;;;;3.55;2.70;;;;;;;16.08;95.04;100472.00;5588939;31;32515;-68
2022/05/14 01:57:14;;;;;;;5.15;2.70;;;;;;;16.03;95.49;100479.81;5589759;31;34374;-68
2022/05/14 02:00:18;;;;;;;6.65;2.83;;;;;;;16.06;95.37;100468.72;5588986;31;32349;-68
2022/05/14 02:03:21;;;;;;;3.92;3.10;;;;;;;16.02;95.35;100465.59;5589734;31;34703;-68
2022/05/14 02:06:26;;;;;;;3.90;2.60;;;;;;;16.04;95.47;100465.41;5575784;31;32766;-68
2022/05/14 02:09:30;;;;;;;4.20;2.90;;;;;;;15.96;95.87;100462.94;5588640;31;34031;-68
2022/05/14 02:12:34;;;;;;;3.83;2.55;;;;;;;15.92;96.26;100464.34;5589413;31;34018;-68
2022/05/14 02:15:39;;;;;;;5.30;2.97;;;;;;;15.78;97.37;100466.12;5588879;31;34071;-68
2022/05/14 02:18:42;;;;;;;4.18;3.03;;;;;;;15.73;98.04;100473.97;5588828;31;34028;-69
2022/05/14 02:21:45;;;;;;;4.10;2.70;;;;;;;15.73;98.14;100475.81;5589506;31;34084;-68
2022/05/14 02:24:48;;;;;;;3.87;2.95;;;;;;;15.68;98.50;100471.06;5589429;31;34620;-68
2022/05/14 02:27:51;;;;;;;5.45;3.40;;;;;;;15.69;98.62;100470.00;5575219;31;33111;-68
2022/05/14 02:30:54;;;;;;;4.62;3.35;;;;;;;15.69;98.73;100474.53;5589415;31;34566;-68
2022/05/14 02:34:01;;;;;;;4.82;3.20;;;;;;;15.76;98.11;100478.91;5588476;31;33383;-68
2022/05/14 02:37:04;;;;;;;3.97;3.17;;;;;;;15.73;98.07;100471.28;5588399;31;34131;-68
2022/05/14 02:40:07;;;;;;;4.47;3.15;;;;;;;15.72;98.31;100476.81;5588455;31;33762;-68
2022/05/14 02:43:10;;;;;;;4.12;3.40;;;;;;;15.70;98.29;100479.69;5588824;31;34008;-68
2022/05/14 02:46:13;;;;;;;4.15;3.28;;;;;;;15.74;97.65;100478.25;5587932;31;34406;-68
2022/05/14 02:49:16;;;;;;;5.57;3.75;;;;;;;15.77;97.36;100480.56;5589146;31;34179;-68
2022/05/14 02:52:19;;;;;;;4.78;3.17;;;;;;;15.70;97.53;100474.34;5588161;31;32695;-68
2022/05/14 02:55:22;;;;;;;7.28;3.42;;;;;;;15.65;97.89;100474.09;5589425;31;33974;-67
2022/05/14 03:01:49;;;;;;;5.65;3.37;;;;;;;15.58;97.80;100489.31;5588891;31;34371;-67
2022/05/14 03:04:52;;;;;;;4.18;3.17;;;;;;;15.58;97.75;100497.34;5588881;31;33929;-68
2022/05/14 03:07:55;;;;;;;4.25;3.10;;;;;;;15.55;98.13;100500.38;5588970;31;34423;-68
2022/05/14 03:10:58;;;;;;;4.22;3.30;;;;;;;15.51;98.60;100499.13;5588761;31;35215;-68
2022/05/14 03:14:01;;;;;;;6.28;3.75;;;;;;;15.46;98.90;100506.88;5588751;31;35198;-68
2022/05/14 03:17:05;;;;;;;6.35;3.87;;;;;;;15.47;99.10;100506.69;5587563;31;33898;-68
2022/05/14 03:20:10;;;;;;;6.32;3.60;;;;;;;15.45;99.26;100511.41;5587619;31;32741;-68
2022/05/14 03:23:13;;;;;;;6.32;3.37;;;;;;;15.35;100.00;100515.44;5587968;31;32416;-68
2022/05/14 03:26:17;;;;;;;5.32;3.55;;;;;;;15.32;100.00;100513.16;5574858;31;32440;-68
2022/05/14 03:29:19;;;;;;;4.87;3.95;;;;;;;15.35;100.00;100526.94;5587573;31;34087;-67
2022/05/14 03:32:24;;;;;;;7.35;3.58;;;;;;;15.26;100.00;100530.78;5587691;31;32396;-68
2022/05/14 03:35:27;;;;;;;6.32;3.70;;;;;;;15.29;100.00;100525.09;5587646;31;33923;-68
2022/05/14 03:38:30;;;;;;;5.03;3.60;;;;;;;15.36;100.00;100525.09;5588184;31;34779;-68
2022/05/14 03:41:33;;;;;;;7.62;4.15;;;;;;;15.34;100.00;100529.84;5588232;31;34354;-68
2022/05/14 03:44:36;;;;;;;6.30;3.95;;;;;;;15.36;100.00;100531.28;5588150;31;34594;-69
2022/05/14 03:47:39;;;;;;;4.90;3.33;;;;;;;15.35;100.00;100534.16;5588078;31;33975;-69
2022/05/14 03:50:42;;;;;;;8.35;3.60;;;;;;;15.39;100.00;100543.44;5587440;31;33749;-69
2022/05/14 03:53:47;;;;;;;5.05;3.72;;;;;;;15.46;100.00;100533.62;5587285;31;34140;-68
2022/05/14 03:56:50;;;;;;;4.85;3.80;;;;;;;15.54;99.15;100546.88;5588379;31;32709;-68
2022/05/14 03:59:53;;;;;;;5.22;3.80;;;;;;;15.52;99.37;100547.06;5590620;31;33969;-68
2022/05/14 04:02:56;;;;;;;4.37;3.50;;;;;;;15.55;99.05;100552.00;5589871;31;33122;-67
2022/05/14 04:06:00;;;;;;;6.05;3.42;;;;;;;15.65;97.97;100559.69;5590533;31;34078;-67
2022/05/14 04:09:03;;;;;;;5.45;3.75;;;;;;;15.59;98.06;100565.81;5590471;31;34732;-68
2022/05/14 04:12:08;;;;;;;5.80;3.15;;;;;;;15.57;97.94;100570.53;5590659;31;34038;-68
2022/05/14 04:15:13;;;;;;;5.05;3.70;;;;;;;15.67;96.86;100563.00;5590963;31;34689;-69
2022/05/14 04:18:24;;;;;;;5.72;3.20;;;;;;;15.86;95.25;100567.66;5590848;31;35300;-68
2022/05/14 04:21:27;;;;;;;4.57;3.30;;;;;;;15.98;94.21;100563.38;5589417;31;32536;-67
2022/05/14 04:24:30;;;;;;;4.78;3.15;;;;;;;16.03;93.65;100576.16;5589874;31;33112;-68
2022/05/14 04:27:33;;;;;;;12.00;3.72;;;;;;;16.14;91.84;100583.63;5589760;31;32764;-69
2022/05/14 04:30:37;;;;;;;4.87;3.30;;;;;;;16.26;90.38;100589.25;5576243;31;32227;-68
2022/05/14 04:33:39;;;;;;;5.65;2.92;;;;;;;16.26;89.85;100586.56;5590296;31;35137;-69
2022/05/14 04:36:42;;;;;;;6.45;3.30;;;;;;;16.40;88.21;100593.63;5590633;31;34763;-68
2022/05/14 04:39:45;;;;;;;4.12;2.85;;;;;;;16.52;86.95;100608.09;5576396;31;33488;-68
2022/05/14 04:42:49;;;;;;;6.30;2.83;;;;;;;16.53;86.79;100602.53;5589362;31;34282;-68
2022/05/14 04:45:52;;;;;;;3.58;2.62;;;;;;;16.61;85.36;100612.25;5589374;31;32984;-68
2022/05/14 04:48:55;;;;;;;8.38;3.33;;;;;;;16.59;84.42;100610.81;5589526;31;32592;-68
2022/05/14 04:51:58;;;;;;;3.78;2.50;;;;;;;16.68;83.02;100613.13;5589573;31;33622;-68
2022/05/14 04:55:01;;;;;;;3.83;2.60;;;;;;;16.74;80.70;100608.81;5590230;31;33949;-68
2022/05/14 04:58:07;;;;;;;6.95;2.65;;;;;;;16.79;80.84;100617.91;5590290;31;33961;-68
2022/05/14 05:01:11;;;;;;;4.82;2.08;;;;;;;17.02;78.53;100614.84;5576482;31;32315;-68
2022/05/14 05:04:13;;;;;;;4.35;2.30;;;;;;;17.00;76.42;100611.53;5590161;31;34607;-68
2022/05/14 05:07:18;;;;;;;7.50;2.30;;;;;;;17.10;77.16;100603.91;5589563;31;34483;-68
2022/05/14 05:10:21;;;;;;;3.40;2.20;;;;;;;17.13;75.91;100611.56;5589917;31;34440;-68
2022/05/14 05:13:28;;;;;;;4.68;2.05;;;;;;;17.25;75.40;100615.28;5589467;31;34163;-68
2022/05/14 05:16:30;;;;;;;5.00;2.33;;;;;;;17.37;74.92;100613.66;5576376;31;34532;-68
2022/05/14 05:19:34;;;;;;;6.53;2.00;;;;;;;17.40;73.98;100612.41;5589277;31;32441;-67
2022/05/14 05:22:37;;;;;;;2.87;1.80;;;;;;;17.40;73.14;100617.75;5589388;31;32747;-68
2022/05/14 05:25:41;;;;;;;4.10;2.22;;;;;;;17.46;71.80;100621.47;5589441;31;32412;-68
2022/05/14 05:28:44;;;;;;;3.65;2.03;;;;;;;17.58;70.91;100631.38;5589600;31;33935;-68
2022/05/14 05:31:47;;;;;;;5.80;2.10;;;;;;;17.61;69.70;100641.75;5588955;31;33271;-67
2022/05/14 05:34:49;;;;;;;6.47;2.30;;;;;;;17.75;68.55;100645.22;5589153;31;33771;-68
2022/05/14 05:37:52;;;;;;;2.60;1.80;;;;;;;17.89;68.04;100638.81;5588679;31;34360;-67
2022/05/14 05:40:55;;;;;;;2.75;1.70;;;;;;;17.91;68.42;100650.16;5588641;31;32539;-68
2022/05/14 05:43:58;;;;;;;4.43;2.10;;;;;;;17.84;66.89;100649.34;5588869;31;34471;-67
2022/05/14 05:47:06;;;;;;;2.55;1.50;;;;;;;17.96;67.29;100650.34;5589191;31;33070;-67
2022/05/14 05:50:10;;;;;;;4.50;1.90;;;;;;;18.11;66.01;100650.09;5589010;31;34673;-68
2022/05/14 05:53:14;;;;;;;5.55;2.08;;;;;;;18.11;65.61;100655.47;5588863;31;32831;-67
2022/05/14 05:59:38;;;;;;;4.07;1.77;;;;;;;18.54;65.33;100659.31;5589080;31;34005;-67
2022/05/14 06:02:41;;;;;;;3.62;1.95;;;;;;;18.63;65.05;100657.22;5589066;31;32453;-67
2022/05/14 06:05:44;;;;;;;4.07;1.67;;;;;;;18.59;64.68;100658.66;5588630;31;32388;-66
2022/05/14 06:08:48;;;;;;;3.50;1.60;;;;;;;18.50;65.26;100659.91;5576097;31;32475;-67
2022/05/14 06:11:52;;;;;;;3.83;2.00;;;;;;;18.74;65.24;100663.75;5588665;31;33260;-68
2022/05/14 06:14:54;;;;;;;8.20;1.62;;;;;;;18.80;65.32;100658.38;5588950;31;33027;-67
2022/05/14 06:18:02;;;;;;;6.03;1.83;;;;;;;19.07;64.76;100662.53;5588491;31;33721;-67
2022/05/14 06:21:05;;;;;;;4.05;1.60;;;;;;;19.20;64.02;100669.72;5588599;31;33904;-67
2022/05/14 06:24:09;;;;;;;9.57;1.98;;;;;;;18.94;63.94;100670.69;5575474;31;34424;-67
2022/05/14 06:27:11;;;;;;;4.50;2.00;;;;;;;19.14;64.93;100667.91;5588635;31;33370;-66
2022/05/14 06:30:15;;;;;;;5.72;2.00;;;;;;;19.06;64.45;100662.78;5589473;31;34390;-67
2022/05/14 06:33:19;;;;;;;3.42;1.92;;;;;;;19.35;64.67;100669.41;5589263;31;34072;-67
2022/05/14 06:36:22;;;;;;;3.75;1.73;;;;;;;19.39;62.62;100666.06;5588534;31;34020;-67
2022/05/14 06:39:24;;;;;;;3.20;1.73;;;;;;;19.36;60.21;100671.91;5588694;31;33244;-66
2022/05/14 06:42:27;;;;;;;9.75;1.95;;;;;;;19.48;58.54;100670.19;5587967;31;32616;-67
2022/05/14 06:45:30;;;;;;;5.72;1.98;;;;;;;19.49;58.29;100668.31;5589312;31;34661;-67
2022/05/14 06:48:33;;;;;;;5.57;2.20;;;;;;;19.43;59.30;100678.03;5589131;31;35306;-67
2022/05/14 06:51:37;;;;;;;7.87;2.10;;;;;;;19.62;57.65;100689.72;5588224;31;32363;-66
2022/05/14 06:54:45;;;;;;;4.78;1.92;;;;;;;19.31;56.47;100684.34;5588238;31;33813;-66
2022/05/14 06:57:50;;;;;;;2.85;1.85;;;;;;;19.40;56.46;100691.13;5589060;31;34636;-67
2022/05/14 07:00:53;;;;;;;10.40;2.20;;;;;;;19.57;56.68;100696.81;5588879;31;33842;-67
2022/05/14 07:07:26;;;;;;;5.07;1.80;;;;;;;19.76;56.84;100698.50;5587896;31;33119;-68
2022/05/14 07:10:28;;;;;;;3.97;2.10;;;;;;;20.30;54.93;100697.81;5588450;31;33965;-67
2022/05/14 07:13:31;;;;;;;4.90;1.87;;;;;;;20.23;55.15;100703.28;5587875;31;32706;-67
2022/05/14 07:16:34;;;;;;;8.75;2.00;;;;;;;20.54;52.57;100713.09;5574775;31;32409;-67
2022/05/14 07:19:37;;;;;;;7.00;1.62;;;;;;;21.09;49.30;100699.56;5587439;31;34027;-67
2022/05/14 07:22:40;;;;;;;5.55;1.70;;;;;;;21.83;48.15;100711.75;5587715;31;32780;-66
2022/05/14 07:25:43;;;;;;;4.32;1.80;;;;;;;21.93;47.94;100712.00;5587858;31;32412;-67
2022/05/14 07:28:46;;;;;;;6.43;1.87;;;;;;;22.39;46.34;100717.41;5587378;31;32334;-66
2022/05/14 07:31:49;;;;;;;3.28;1.58;;;;;;;22.31;46.33;100708.84;5588747;31;33154;-67
2022/05/14 07:34:52;;;;;;;4.87;1.70;;;;;;;22.88;44.84;100718.75;5590169;31;32518;-67
2022/05/14 07:37:58;;;;;;;4.35;2.03;;;;;;;22.16;45.88;100722.84;5590280;31;34653;-66
2022/05/14 07:41:02;;;;;;;4.37;1.60;;;;;;;21.99;46.30;100730.81;5589501;31;32495;-67
2022/05/14 07:44:08;;;;;;;6.75;1.70;;;;;;;23.07;42.64;100716.69;5589386;31;32818;-67
2022/05/14 07:47:12;;;;;;;2.65;1.50;;;;;;;22.83;43.41;100723.25;5590022;31;32465;-68
2022/05/14 07:50:17;;;;;;;5.18;1.80;;;;;;;22.10;43.49;100723.78;5590785;31;33962;-69
2022/05/14 07:53:20;;;;;;;5.60;1.67;;;;;;;22.47;41.83;100721.63;5589962;31;32471;-67
2022/05/14 07:56:23;;;;;;;7.65;1.62;;;;;;;22.54;41.48;100719.63;5590486;31;33932;-67
2022/05/14 07:59:26;;;;;;;5.82;1.65;;;;;;;23.14;40.03;100716.56;5589795;31;34180;-68
2022/05/14 08:02:37;;;;;;;2.72;1.73;;;;;;;23.91;38.99;100728.50;5589696;31;33042;-69
2022/05/14 08:05:40;;;;;;;3.72;1.52;;;;;;;23.83;39.33;100716.16;5589724;31;32537;-68
2022/05/14 08:08:43;;;;;;;3.70;1.50;;;;;;;23.98;38.61;100712.88;5590547;31;34670;-69
2022/05/14 08:11:46;;;;;;;2.87;1.20;;;;;;;24.90;35.87;100714.97;5589434;31;32573;-68
2022/05/14 08:14:48;;;;;;;3.30;1.35;;;;;;;24.89;35.48;100714.16;5589670;31;33518;-67
2022/05/14 08:17:51;;;;;;;3.20;1.40;;;;;;;23.70;35.82;100705.66;5590506;31;34024;-67
2022/05/14 08:20:54;;;;;;;3.53;1.50;;;;;;;23.27;37.26;100708.94;5589429;31;33163;-67
2022/05/14 08:27:18;;;;;;;4.53;1.37;;;;;;;24.46;34.60;100725.81;5589024;31;33280;-67
2022/05/14 08:30:24;;;;;;;3.40;1.62;;;;;;;25.14;33.50;100720.94;5590220;31;34002;-68
2022/05/14 08:33:27;;;;;;;3.75;1.50;;;;;;;24.83;33.24;100725.19;5590067;31;33870;-68
2022/05/14 08:36:30;;;;;;;4.62;1.50;;;;;;;24.26;32.66;100714.66;5589463;31;32920;-67
2022/05/14 08:39:33;;;;;;;4.00;1.30;;;;;;;24.79;32.42;100710.47;5589959;31;33963;-68
2022/05/14 08:42:38;;;;;;;4.90;1.27;;;;;;;24.76;32.75;100713.69;5589020;31;33926;-69
2022/05/14 08:45:41;;;;;;;3.50;1.20;;;;;;;26.11;31.07;100696.28;5589953;31;34146;-68
2022/05/14 08:48:48;;;;;;;6.25;1.25;;;;;;;27.24;29.69;100705.50;5589075;31;34107;-69
2022/05/14 08:51:51;;;;;;;3.03;1.37;;;;;;;26.62;29.47;100713.72;5590030;31;33944;-67
2022/05/14 08:55:00;;;;;;;3.70;1.23;;;;;;;24.98;33.12;100711.84;5589931;31;34432;-67
2022/05/14 08:58:07;;;;;;;9.02;1.27;;;;;;;25.36;32.14;100708.97;5575938;31;32464;-68
2022/05/14 09:01:14;;;;;;;2.10;0.98;;;;;;;25.40;32.11;100712.81;5589897;31;33997;-67
2022/05/14 09:04:17;;;;;;;2.28;1.30;;;;;;;26.35;31.42;100698.34;5576152;31;33991;-67
2022/05/14 09:07:20;;;;;;;5.97;1.62;;;;;;;25.39;32.88;100699.50;5588984;31;32515;-68
2022/05/14 09:10:39;;;;;;;2.90;1.50;;;;;;;26.59;32.32;100695.19;5589071;31;32433;-68
2022/05/14 09:13:45;;;;;;;3.05;1.50;;;;;;;26.11;33.07;100702.53;5589645;31;33966;-67
2022/05/14 09:16:50;;;;;;;4.65;1.55;;;;;;;26.35;32.42;100698.34;5588707;31;32694;-69
2022/05/14 09:19:56;;;;;;;4.37;1.50;;;;;;;26.76;32.61;100701.28;5589014;31;34049;-68
2022/05/14 09:22:58;;;;;;;1.75;1.17;;;;;;;27.27;32.40;100696.78;5588673;31;36177;-68
2022/05/14 09:26:11;;;;;;;3.97;1.45;;;;;;;28.27;30.28;100695.16;5589440;31;33508;-68
2022/05/14 09:29:26;;;;;;;2.20;1.20;;;;;;;27.90;29.88;100700.09;5588579;31;33197;-67
2022/05/14 09:32:34;;;;;;;3.30;1.27;;;;;;;26.11;31.99;100694.37;5588460;31;32755;-67
2022/05/14 09:35:38;;;;;;;5.18;1.40;;;;;;;28.13;30.10;100699.53;5588398;31;32687;-68
2022/05/14 09:38:42;;;;;;;3.37;1.40;;;;;;;27.75;29.00;100694.66;5588249;31;32315;-67
2022/05/14 09:41:47;;;;;;;3.67;1.27;;;;;;;27.44;29.17;100689.19;5588001;31;34025;-67
2022/05/14 09:44:53;;;;;;;3.90;1.58;;;;;;;26.06;31.03;100679.91;5588278;31;32865;-67
2022/05/14 09:47:56;;;;;;;3.87;1.25;;;;;;;28.30;28.72;100683.69;5588880;31;32555;-67
2022/05/14 09:51:03;;;;;;;5.40;1.75;;;;;;;29.36;27.67;100688.66;5588873;31;32465;-67
2022/05/14 09:54:18;;;;;;;5.68;1.30;;;;;;;27.04;29.48;100672.78;5588270;31;34330;-67
2022/05/14 09:57:40;;;;;;;3.70;1.35;;;;;;;27.99;29.15;100674.72;5588592;31;34350;-67
2022/05/14 10:01:03;;;;;;;3.25;1.45;;;;;;;26.70;31.02;100662.31;5588742;31;34644;-68
2022/05/14 10:04:30;;;;;;;5.10;1.17;;;;;;;27.99;28.38;100668.44;5575606;31;32499;-68
2022/05/14 10:07:35;;;;;;;2.25;1.20;;;;;;;29.59;26.66;100672.62;5588803;31;33328;-67
2022/05/14 10:11:12;;;;;;;4.22;1.37;;;;;;;28.83;26.68;100670.41;5588616;31;32529;-66
2022/05/14 10:14:34;;;;;;;6.28;1.55;;;;;;;28.08;27.76;100662.16;5589606;31;34302;-68
2022/05/14 10:17:40;;;;;;;3.47;1.17;;;;;;;28.36;27.74;100668.94;5589441;31;34365;-67
2022/05/14 10:20:55;;;;;;;2.60;1.05;;;;;;;28.04;27.53;100661.06;5589305;31;34868;-67
2022/05/14 10:27:34;;;;;;;5.78;1.70;;;;;;;29.17;26.13;100654.06;5583508;31;163364;-68
2022/05/14 10:31:16;;;;;;;2.85;1.45;;;;;;;28.45;27.87;100670.00;5588515;31;32476;-67
2022/05/14 10:34:34;;;;;;;3.47;1.17;;;;;;;28.70;26.96;100663.63;5549788;31;32658;-67
2022/05/14 10:38:16;;;;;;;5.35;1.20;;;;;;;27.62;27.65;100655.16;5588774;31;32706;-67
2022/05/14 10:41:37;;;;;;;2.83;1.52;;;;;;;29.48;25.52;100662.88;5562678;31;32468;-68
2022/05/14 10:45:18;;;;;;;5.15;1.52;;;;;;;29.16;25.68;100653.25;5588190;31;32945;-68
2022/05/14 10:49:10;;;;;;;3.22;1.20;;;;;;;30.22;24.59;100654.22;5587113;31;34636;-67
2022/05/14 10:52:16;;;;;;;3.12;1.10;;;;;;;27.95;26.90;100654.56;5574765;31;32361;-67
2022/05/14 10:55:30;;;;;;;6.43;1.10;;;;;;;29.42;25.05;100655.81;5588114;31;32736;-68
2022/05/14 10:58:51;;;;;;;1.98;1.05;;;;;;;29.24;25.31;100654.56;5588165;31;32461;-67
2022/05/14 11:01:55;;;;;;;7.37;1.40;;;;;;;29.08;25.93;100648.41;5588898;31;34666;-67
2022/05/14 11:04:58;;;;;;;2.97;1.08;;;;;;;30.56;24.12;100646.72;5574873;31;33073;-67
2022/05/14 11:08:33;;;;;;;3.87;1.05;;;;;;;30.50;23.55;100653.38;5587466;31;33196;-67
2022/05/14 11:11:47;;;;;;;4.45;1.35;;;;;;;31.08;22.98;100641.38;5575064;31;32525;-67
2022/05/14 11:14:53;;;;;;;5.30;1.40;;;;;;;29.05;25.61;100646.22;5588061;31;32600;-66
2022/05/14 11:18:16;;;;;;;4.15;1.23;;;;;;;30.44;24.65;100649.06;5587737;31;32326;-68
2022/05/14 11:21:32;;;;;;;4.30;1.33;;;;;;;29.49;25.01;100648.91;5574882;31;33429;-68
2022/05/14 11:24:42;;;;;;;2.20;1.02;;;;;;;31.89;22.10;100638.91;5588012;31;35125;-67
2022/05/14 11:28:06;;;;;;;2.10;1.02;;;;;;;30.17;24.51;100638.69;5587763;31;34889;-66
2022/05/14 11:31:24;;;;;;;4.07;1.10;;;;;;;31.20;23.11;100631.56;5587656;31;34043;-66
2022/05/14 11:34:27;;;;;;;2.55;1.17;;;;;;;32.93;20.36;100640.87;5588305;31;33988;-68
2022/05/14 11:37:38;;;;;;;3.22;1.02;;;;;;;29.36;24.42;100635.91;5587391;31;32484;-67
2022/05/14 11:40:40;;;;;;;1.65;1.00;;;;;;;29.58;23.47;100630.78;5588252;31;33981;-67
2022/05/14 11:43:43;;;;;;;1.50;0.88;;;;;;;29.93;23.22;100628.84;5587466;31;32593;-68
2022/05/14 11:46:48;;;;;;;2.17;0.90;;;;;;;32.02;21.07;100629.06;5588025;31;35210;-66
2022/05/14 11:49:53;;;;;;;5.05;1.20;;;;;;;31.61;21.24;100629.00;5587902;31;34670;-65
2022/05/14 11:53:09;;;;;;;2.42;0.98;;;;;;;30.25;22.64;100620.00;5587965;31;34597;-66
2022/05/14 11:56:29;;;;;;;7.25;1.12;;;;;;;31.47;21.73;100634.41;5586795;31;32345;-68
2022/05/14 11:59:40;;;;;;;6.05;0.95;;;;;;;32.73;19.98;100633.09;5586682;31;33595;-69
2022/05/14 12:03:03;;;;;;;3.53;1.00;;;;;;;34.54;18.60;100625.94;5588063;31;34676;-68
2022/05/14 12:06:18;;;;;;;4.55;1.00;;;;;;;33.07;19.41;100632.59;5586971;31;34274;-66
2022/05/14 12:10:04;;;;;;;2.58;1.10;;;;;;;30.59;21.48;100615.22;5587045;31;32282;-67
2022/05/14 12:13:37;;;;;;;3.47;1.08;;;;;;;32.81;19.82;100620.56;5526872;32;33741;-67
2022/05/14 12:16:48;;;;;;;3.15;1.23;;;;;;;32.53;20.22;100625.31;5514604;32;33985;-68
2022/05/14 12:19:55;;;;;;;3.35;1.33;;;;;;;30.72;20.53;100611.72;5517252;32;32111;-67
2022/05/14 12:23:03;;;;;;;2.47;1.10;;;;;;;30.32;21.54;100615.78;5530144;32;33749;-67
2022/05/14 12:26:31;;;;;;;5.72;1.20;;;;;;;31.42;20.27;100614.47;5516766;32;32453;-66
2022/05/14 12:29:34;;;;;;;2.03;1.02;;;;;;;32.29;18.73;100609.06;5508461;32;33099;-67
2022/05/14 12:36:10;;;;;;;3.28;0.95;;;;;;;32.03;19.91;100608.72;5510923;32;34614;-67
2022/05/14 12:39:19;;;;;;;2.20;1.08;;;;;;;31.63;20.05;100615.78;5517006;32;33280;-66
2022/05/14 12:42:30;;;;;;;2.40;1.02;;;;;;;30.85;20.85;100604.69;5529889;32;34570;-67
2022/05/14 12:45:37;;;;;;;2.53;1.00;;;;;;;32.60;19.40;100609.19;5534083;31;35408;-67
2022/05/14 12:48:46;;;;;;;3.20;1.10;;;;;;;32.88;19.67;100598.97;5588870;31;32588;-67
2022/05/14 12:51:52;;;;;;;7.40;1.20;;;;;;;33.69;18.42;100603.31;5563500;31;33256;-68
2022/05/14 12:55:13;;;;;;;2.35;1.00;;;;;;;32.83;19.32;100601.81;5589975;31;34788;-66
2022/05/14 12:58:18;;;;;;;3.35;1.02;;;;;;;32.96;19.09;100592.75;5590009;31;34633;-66
2022/05/14 13:01:23;;;;;;;3.62;1.10;;;;;;;31.36;20.10;100585.53;5589261;31;33362;-67
2022/05/14 13:04:37;;;;;;;2.25;1.05;;;;;;;30.69;21.29;100584.94;5589229;31;33445;-66
2022/05/14 13:07:47;;;;;;;2.08;0.98;;;;;;;32.26;19.87;100588.50;5589643;31;33101;-68
2022/05/14 13:11:00;;;;;;;1.52;1.02;;;;;;;31.83;20.19;100571.53;5576050;31;32667;-67
2022/05/14 13:14:15;;;;;;;1.52;0.90;;;;;;;33.96;18.74;100574.75;5588782;31;33655;-67
2022/05/14 13:17:19;;;;;;;3.28;1.40;;;;;;;34.93;18.00;100570.72;5589377;31;33583;-67
2022/05/14 13:20:24;;;;;;;3.65;1.02;;;;;;;32.60;20.59;100563.31;5589380;31;32554;-67
2022/05/14 13:23:28;;;;;;;4.20;1.25;;;;;;;34.38;18.65;100562.22;5590236;31;34032;-67
2022/05/14 13:26:39;;;;;;;1.85;0.82;;;;;;;34.24;18.55;100562.37;5575905;31;33356;-68
2022/05/14 13:29:42;;;;;;;4.07;0.90;;;;;;;33.16;19.98;100559.28;5588049;31;33832;-68
2022/05/14 13:32:45;;;;;;;4.47;1.17;;;;;;;32.56;19.78;100553.25;5590005;31;33938;-67
2022/05/14 13:39:16;;;;;;;2.70;1.10;;;;;;;31.14;22.23;100539.56;5588624;31;34439;-67
2022/05/14 13:42:24;;;;;;;5.87;1.30;;;;;;;32.38;20.69;100538.56;5588460;31;32709;-67
2022/05/14 13:45:34;;;;;;;4.07;1.10;;;;;;;33.42;19.66;100537.41;5588963;31;33937;-68
2022/05/14 13:48:39;;;;;;;3.12;1.05;;;;;;;32.14;20.63;100538.00;5589720;31;34654;-67
2022/05/14 13:51:53;;;;;;;2.85;0.95;;;;;;;33.48;19.50;100542.47;5588882;31;33247;-68
2022/05/14 13:55:06;;;;;;;2.43;1.00;;;;;;;33.21;19.66;100534.41;5589673;31;34787;-68
2022/05/14 13:58:18;;;;;;;2.67;1.10;;;;;;;32.11;20.29;100517.44;5588522;31;32312;-67
2022/05/14 14:01:48;;;;;;;5.10;1.10;;;;;;;31.99;20.25;100525.37;5589558;31;33921;-67
2022/05/14 14:04:53;;;;;;;3.78;1.05;;;;;;;30.67;22.21;100515.13;5588929;31;33358;-68
2022/05/14 14:07:56;;;;;;;2.65;1.25;;;;;;;34.39;18.90;100517.03;5589034;31;32810;-68
2022/05/14 14:10:59;;;;;;;3.85;1.17;;;;;;;34.05;18.86;100510.31;5588858;31;32702;-67
2022/05/14 14:14:02;;;;;;;4.47;1.17;;;;;;;32.80;20.25;100507.09;5589506;31;34667;-68
2022/05/14 14:17:05;;;;;;;2.50;1.48;;;;;;;32.65;20.69;100508.28;5589005;31;32326;-69
2022/05/14 14:20:10;;;;;;;5.87;1.25;;;;;;;32.89;20.70;100510.72;5588570;31;34061;-67
2022/05/14 14:23:23;;;;;;;2.72;1.10;;;;;;;30.63;23.41;100498.50;5588359;31;32668;-67
2022/05/14 14:26:26;;;;;;;2.65;1.10;;;;;;;29.42;24.90;100505.50;5588840;31;33003;-68
2022/05/14 14:29:29;;;;;;;1.40;0.90;;;;;;;26.53;28.53;100497.66;5588345;31;32662;-67
2022/05/14 14:32:32;;;;;;;2.83;1.00;;;;;;;25.69;29.96;100498.69;5588547;31;32305;-67
2022/05/14 14:35:36;;;;;;;6.43;1.10;;;;;;;25.40;30.47;100505.56;5588260;31;32889;-68
2022/05/14 14:38:39;;;;;;;1.83;0.82;;;;;;;25.92;30.32;100500.16;5588458;31;33890;-67
2022/05/14 14:41:42;;;;;;;3.25;1.00;;;;;;;25.45;30.28;100487.41;5588280;31;32979;-67
2022/05/14 14:44:45;;;;;;;1.52;0.80;;;;;;;25.14;30.58;100492.88;5587958;31;32818;-67
2022/05/14 14:47:48;;;;;;;4.40;1.27;;;;;;;25.15;30.25;100497.25;5588112;31;33148;-66
2022/05/14 14:50:53;;;;;;;3.75;1.00;;;;;;;25.43;30.10;100495.00;5588075;31;32901;-66
2022/05/14 14:53:56;;;;;;;2.58;0.90;;;;;;;25.05;30.63;100500.69;5588851;31;33974;-66
2022/05/14 14:56:59;;;;;;;2.08;1.10;;;;;;;24.50;31.54;100499.09;5588172;31;32458;-66